sensor_id;sensor_type;location;lat;lon;timestamp;temperature;humidity
66102;HTU21D;52883;51.094;5.880;2022-11-22T00:01:54;7.14;118.99
66102;HTU21D;52883;51.094;5.880;2022-11-22T00:04:19;7.16;118.99
66102;HTU21D;52883;51.094;5.880;2022-11-22T00:06:45;7.16;118.99
66102;HTU21D;52883;51.094;5.880;2022-11-22T00:09:13;7.16;118.99
66102;HTU21D;52883;51.094;5.880;2022-11-22T00:11:39;7.13;118.99
66102;HTU21D;52883;51.094;5.880;2022-11-22T00:14:05;7.09;118.99
66102;HTU21D;52883;51.094;5.880;2022-11-22T00:16:30;7.02;118.99
66102;HTU21D;52883;51.094;5.880;2022-11-22T00:18:56;6.95;118.99
66102;HTU21D;52883;51.094;5.880;2022-11-22T00:21:22;6.83;118.99
66102;HTU21D;52883;51.094;5.880;2022-11-22T00:23:56;6.69;118.99
66102;HTU21D;52883;51.094;5.880;2022-11-22T00:26:23;6.57;118.99
66102;HTU21D;52883;51.094;5.880;2022-11-22T00:28:49;6.49;118.99
66102;HTU21D;52883;51.094;5.880;2022-11-22T00:31:14;6.42;118.99
66102;HTU21D;52883;51.094;5.880;2022-11-22T00:33:40;6.34;118.99
66102;HTU21D;52883;51.094;5.880;2022-11-22T00:36:06;6.28;118.99
66102;HTU21D;52883;51.094;5.880;2022-11-22T00:38:31;6.21;118.99
66102;HTU21D;52883;51.094;5.880;2022-11-22T00:40:57;6.14;118.99
66102;HTU21D;52883;51.094;5.880;2022-11-22T00:43:23;6.10;118.99
66102;HTU21D;52883;51.094;5.880;2022-11-22T00:45:48;6.07;118.99
66102;HTU21D;52883;51.094;5.880;2022-11-22T00:48:14;6.04;118.99
66102;HTU21D;52883;51.094;5.880;2022-11-22T00:50:40;6.07;118.99
66102;HTU21D;52883;51.094;5.880;2022-11-22T00:53:05;6.08;118.99
66102;HTU21D;52883;51.094;5.880;2022-11-22T00:55:31;6.10;118.99
66102;HTU21D;52883;51.094;5.880;2022-11-22T00:57:57;6.08;118.99
66102;HTU21D;52883;51.094;5.880;2022-11-22T01:00:22;6.07;118.99
66102;HTU21D;52883;51.094;5.880;2022-11-22T01:02:48;6.14;118.99
66102;HTU21D;52883;51.094;5.880;2022-11-22T01:05:14;6.15;118.99
66102;HTU21D;52883;51.094;5.880;2022-11-22T01:07:40;6.11;118.99
66102;HTU21D;52883;51.094;5.880;2022-11-22T01:10:05;6.08;118.99
66102;HTU21D;52883;51.094;5.880;2022-11-22T01:12:31;5.99;118.99
66102;HTU21D;52883;51.094;5.880;2022-11-22T01:14:57;5.95;118.99
66102;HTU21D;52883;51.094;5.880;2022-11-22T01:17:26;5.86;118.99
66102;HTU21D;52883;51.094;5.880;2022-11-22T01:19:52;5.77;118.99
66102;HTU21D;52883;51.094;5.880;2022-11-22T01:22:18;5.67;118.99
66102;HTU21D;52883;51.094;5.880;2022-11-22T01:24:43;5.64;118.99
66102;HTU21D;52883;51.094;5.880;2022-11-22T01:27:10;5.59;118.99
66102;HTU21D;52883;51.094;5.880;2022-11-22T01:29:36;5.54;118.99
66102;HTU21D;52883;51.094;5.880;2022-11-22T01:32:04;5.49;118.99
66102;HTU21D;52883;51.094;5.880;2022-11-22T01:34:31;5.49;118.99
66102;HTU21D;52883;51.094;5.880;2022-11-22T01:36:59;5.49;118.99
66102;HTU21D;52883;51.094;5.880;2022-11-22T01:39:24;5.51;118.99
66102;HTU21D;52883;51.094;5.880;2022-11-22T01:41:50;5.50;118.99
66102;HTU21D;52883;51.094;5.880;2022-11-22T01:44:28;5.52;118.99
66102;HTU21D;52883;51.094;5.880;2022-11-22T01:47:12;5.50;118.99
66102;HTU21D;52883;51.094;5.880;2022-11-22T01:49:56;5.45;118.99
66102;HTU21D;52883;51.094;5.880;2022-11-22T01:52:28;5.45;118.99
66102;HTU21D;52883;51.094;5.880;2022-11-22T01:55:08;5.38;118.99
66102;HTU21D;52883;51.094;5.880;2022-11-22T01:57:38;5.31;118.99
66102;HTU21D;52883;51.094;5.880;2022-11-22T02:00:11;5.25;118.99
66102;HTU21D;52883;51.094;5.880;2022-11-22T02:02:50;5.20;118.99
66102;HTU21D;52883;51.094;5.880;2022-11-22T02:05:25;5.21;118.99
66102;HTU21D;52883;51.094;5.880;2022-11-22T02:08:12;5.18;118.99
66102;HTU21D;52883;51.094;5.880;2022-11-22T02:10:45;5.11;118.99
66102;HTU21D;52883;51.094;5.880;2022-11-22T02:13:16;5.08;118.99
66102;HTU21D;52883;51.094;5.880;2022-11-22T02:15:43;5.05;118.99
66102;HTU21D;52883;51.094;5.880;2022-11-22T02:18:09;5.00;118.99
66102;HTU21D;52883;51.094;5.880;2022-11-22T02:20:37;5.01;118.99
66102;HTU21D;52883;51.094;5.880;2022-11-22T02:28:03;5.22;118.99
66102;HTU21D;52883;51.094;5.880;2022-11-22T02:30:29;5.22;118.99
66102;HTU21D;52883;51.094;5.880;2022-11-22T02:32:55;5.21;118.99
66102;HTU21D;52883;51.094;5.880;2022-11-22T02:35:23;5.19;118.99
66102;HTU21D;52883;51.094;5.880;2022-11-22T02:38:07;5.24;118.99
66102;HTU21D;52883;51.094;5.880;2022-11-22T02:40:39;5.20;118.99
66102;HTU21D;52883;51.094;5.880;2022-11-22T02:43:11;5.18;118.99
66102;HTU21D;52883;51.094;5.880;2022-11-22T02:45:37;5.12;118.99
66102;HTU21D;52883;51.094;5.880;2022-11-22T02:48:15;5.09;118.99
66102;HTU21D;52883;51.094;5.880;2022-11-22T02:50:41;5.05;118.99
66102;HTU21D;52883;51.094;5.880;2022-11-22T02:53:09;5.04;118.99
66102;HTU21D;52883;51.094;5.880;2022-11-22T02:55:35;5.01;118.99
66102;HTU21D;52883;51.094;5.880;2022-11-22T02:58:01;4.95;118.99
66102;HTU21D;52883;51.094;5.880;2022-11-22T03:00:27;4.96;118.99
66102;HTU21D;52883;51.094;5.880;2022-11-22T03:02:53;4.92;118.99
66102;HTU21D;52883;51.094;5.880;2022-11-22T03:05:18;4.88;118.99
66102;HTU21D;52883;51.094;5.880;2022-11-22T03:07:44;4.88;118.99
66102;HTU21D;52883;51.094;5.880;2022-11-22T03:10:10;4.81;118.99
66102;HTU21D;52883;51.094;5.880;2022-11-22T03:12:35;4.82;118.99
66102;HTU21D;52883;51.094;5.880;2022-11-22T03:15:01;4.83;118.99
66102;HTU21D;52883;51.094;5.880;2022-11-22T03:17:27;4.77;118.99
66102;HTU21D;52883;51.094;5.880;2022-11-22T03:19:52;4.72;118.99
66102;HTU21D;52883;51.094;5.880;2022-11-22T03:26:08;4.56;118.99
66102;HTU21D;52883;51.094;5.880;2022-11-22T03:28:34;4.48;118.99
66102;HTU21D;52883;51.094;5.880;2022-11-22T03:31:00;4.46;118.99
66102;HTU21D;52883;51.094;5.880;2022-11-22T03:33:26;4.45;118.99
66102;HTU21D;52883;51.094;5.880;2022-11-22T03:35:56;4.50;118.99
66102;HTU21D;52883;51.094;5.880;2022-11-22T03:38:21;4.53;118.99
66102;HTU21D;52883;51.094;5.880;2022-11-22T03:40:50;4.52;118.99
66102;HTU21D;52883;51.094;5.880;2022-11-22T03:43:16;4.53;118.99
66102;HTU21D;52883;51.094;5.880;2022-11-22T03:45:45;4.54;118.99
66102;HTU21D;52883;51.094;5.880;2022-11-22T03:48:14;4.48;118.99
66102;HTU21D;52883;51.094;5.880;2022-11-22T03:50:40;4.46;118.99
66102;HTU21D;52883;51.094;5.880;2022-11-22T03:53:06;4.41;118.99
66102;HTU21D;52883;51.094;5.880;2022-11-22T03:55:32;4.44;118.99
66102;HTU21D;52883;51.094;5.880;2022-11-22T03:57:58;4.45;118.99
66102;HTU21D;52883;51.094;5.880;2022-11-22T04:00:23;4.41;118.99
66102;HTU21D;52883;51.094;5.880;2022-11-22T04:02:49;4.44;118.99
66102;HTU21D;52883;51.094;5.880;2022-11-22T04:05:15;4.41;118.99
66102;HTU21D;52883;51.094;5.880;2022-11-22T04:07:41;4.44;118.99
66102;HTU21D;52883;51.094;5.880;2022-11-22T04:10:07;4.43;118.99
66102;HTU21D;52883;51.094;5.880;2022-11-22T04:12:33;4.35;118.99
66102;HTU21D;52883;51.094;5.880;2022-11-22T04:14:59;4.23;118.99
66102;HTU21D;52883;51.094;5.880;2022-11-22T04:17:38;4.20;118.99
66102;HTU21D;52883;51.094;5.880;2022-11-22T04:20:11;4.27;118.99
66102;HTU21D;52883;51.094;5.880;2022-11-22T04:23:07;4.22;118.99
66102;HTU21D;52883;51.094;5.880;2022-11-22T04:25:36;4.18;118.99
66102;HTU21D;52883;51.094;5.880;2022-11-22T04:28:02;4.14;118.99
66102;HTU21D;52883;51.094;5.880;2022-11-22T04:30:29;4.14;118.99
66102;HTU21D;52883;51.094;5.880;2022-11-22T04:33:14;4.09;118.99
66102;HTU21D;52883;51.094;5.880;2022-11-22T04:35:42;4.13;118.99
66102;HTU21D;52883;51.094;5.880;2022-11-22T04:38:10;4.17;118.99
66102;HTU21D;52883;51.094;5.880;2022-11-22T04:40:36;4.18;118.99
66102;HTU21D;52883;51.094;5.880;2022-11-22T04:43:03;4.17;118.99
66102;HTU21D;52883;51.094;5.880;2022-11-22T04:45:51;4.16;118.99
66102;HTU21D;52883;51.094;5.880;2022-11-22T04:48:17;4.17;118.99
66102;HTU21D;52883;51.094;5.880;2022-11-22T04:50:45;4.13;118.99
66102;HTU21D;52883;51.094;5.880;2022-11-22T04:53:29;4.09;118.99
66102;HTU21D;52883;51.094;5.880;2022-11-22T04:55:56;4.03;118.99
66102;HTU21D;52883;51.094;5.880;2022-11-22T04:58:22;4.02;118.99
66102;HTU21D;52883;51.094;5.880;2022-11-22T05:00:51;3.98;118.99
66102;HTU21D;52883;51.094;5.880;2022-11-22T05:03:19;4.02;118.99
66102;HTU21D;52883;51.094;5.880;2022-11-22T05:05:45;4.06;118.99
66102;HTU21D;52883;51.094;5.880;2022-11-22T05:08:14;4.02;118.99
66102;HTU21D;52883;51.094;5.880;2022-11-22T05:10:40;3.98;118.99
66102;HTU21D;52883;51.094;5.880;2022-11-22T05:13:27;4.03;118.99
66102;HTU21D;52883;51.094;5.880;2022-11-22T05:15:54;4.01;118.99
66102;HTU21D;52883;51.094;5.880;2022-11-22T05:18:21;3.97;118.99
66102;HTU21D;52883;51.094;5.880;2022-11-22T05:20:51;3.93;118.99
66102;HTU21D;52883;51.094;5.880;2022-11-22T05:23:21;3.89;118.99
66102;HTU21D;52883;51.094;5.880;2022-11-22T05:26:07;3.84;118.99
66102;HTU21D;52883;51.094;5.880;2022-11-22T05:28:34;3.79;118.99
66102;HTU21D;52883;51.094;5.880;2022-11-22T05:31:08;3.78;118.99
66102;HTU21D;52883;51.094;5.880;2022-11-22T05:33:36;3.82;118.99
66102;HTU21D;52883;51.094;5.880;2022-11-22T05:36:03;3.77;118.99
66102;HTU21D;52883;51.094;5.880;2022-11-22T05:38:29;3.75;118.99
66102;HTU21D;52883;51.094;5.880;2022-11-22T05:40:55;3.77;118.99
66102;HTU21D;52883;51.094;5.880;2022-11-22T05:43:20;3.77;118.99
66102;HTU21D;52883;51.094;5.880;2022-11-22T05:45:46;3.76;118.99
66102;HTU21D;52883;51.094;5.880;2022-11-22T05:48:12;3.73;118.99
66102;HTU21D;52883;51.094;5.880;2022-11-22T05:50:37;3.70;118.99
66102;HTU21D;52883;51.094;5.880;2022-11-22T05:53:03;3.71;118.99
66102;HTU21D;52883;51.094;5.880;2022-11-22T05:55:29;3.69;118.99
66102;HTU21D;52883;51.094;5.880;2022-11-22T05:57:58;3.72;118.99
66102;HTU21D;52883;51.094;5.880;2022-11-22T06:00:24;3.68;118.99
66102;HTU21D;52883;51.094;5.880;2022-11-22T06:02:50;3.65;118.99
66102;HTU21D;52883;51.094;5.880;2022-11-22T06:05:16;3.67;118.99
66102;HTU21D;52883;51.094;5.880;2022-11-22T06:07:41;3.68;118.99
66102;HTU21D;52883;51.094;5.880;2022-11-22T06:10:07;3.64;118.99
66102;HTU21D;52883;51.094;5.880;2022-11-22T06:12:33;3.61;118.99
66102;HTU21D;52883;51.094;5.880;2022-11-22T06:14:59;3.65;118.99
66102;HTU21D;52883;51.094;5.880;2022-11-22T06:17:28;3.67;118.99
66102;HTU21D;52883;51.094;5.880;2022-11-22T06:19:53;3.58;118.99
66102;HTU21D;52883;51.094;5.880;2022-11-22T06:22:22;3.57;118.99
66102;HTU21D;52883;51.094;5.880;2022-11-22T06:24:48;3.64;118.99
66102;HTU21D;52883;51.094;5.880;2022-11-22T06:27:14;3.64;118.99
66102;HTU21D;52883;51.094;5.880;2022-11-22T06:29:39;3.55;118.99
66102;HTU21D;52883;51.094;5.880;2022-11-22T06:32:07;3.46;118.99
66102;HTU21D;52883;51.094;5.880;2022-11-22T06:34:32;3.39;118.99
66102;HTU21D;52883;51.094;5.880;2022-11-22T06:36:58;3.35;118.99
66102;HTU21D;52883;51.094;5.880;2022-11-22T06:39:24;3.33;118.99
66102;HTU21D;52883;51.094;5.880;2022-11-22T06:41:49;3.43;118.99
66102;HTU21D;52883;51.094;5.880;2022-11-22T06:44:15;3.45;118.99
66102;HTU21D;52883;51.094;5.880;2022-11-22T06:46:41;3.53;118.99
66102;HTU21D;52883;51.094;5.880;2022-11-22T06:49:06;3.53;118.99
66102;HTU21D;52883;51.094;5.880;2022-11-22T06:51:32;3.45;118.99
66102;HTU21D;52883;51.094;5.880;2022-11-22T06:53:58;3.43;118.99
66102;HTU21D;52883;51.094;5.880;2022-11-22T06:56:27;3.42;118.99
66102;HTU21D;52883;51.094;5.880;2022-11-22T06:58:53;3.40;118.99
66102;HTU21D;52883;51.094;5.880;2022-11-22T07:01:25;3.40;118.99
66102;HTU21D;52883;51.094;5.880;2022-11-22T07:03:52;3.43;118.99
66102;HTU21D;52883;51.094;5.880;2022-11-22T07:06:26;3.40;118.99
66102;HTU21D;52883;51.094;5.880;2022-11-22T07:08:52;3.45;118.99
66102;HTU21D;52883;51.094;5.880;2022-11-22T07:11:23;3.50;118.99
66102;HTU21D;52883;51.094;5.880;2022-11-22T07:13:49;3.52;118.99
66102;HTU21D;52883;51.094;5.880;2022-11-22T07:16:20;3.49;118.99
66102;HTU21D;52883;51.094;5.880;2022-11-22T07:18:47;3.46;118.99
66102;HTU21D;52883;51.094;5.880;2022-11-22T07:21:19;3.41;118.99
66102;HTU21D;52883;51.094;5.880;2022-11-22T07:23:47;3.38;118.99
66102;HTU21D;52883;51.094;5.880;2022-11-22T07:26:17;3.39;118.99
66102;HTU21D;52883;51.094;5.880;2022-11-22T07:28:50;3.42;118.99
66102;HTU21D;52883;51.094;5.880;2022-11-22T07:31:16;3.43;118.99
66102;HTU21D;52883;51.094;5.880;2022-11-22T07:33:46;3.47;118.99
66102;HTU21D;52883;51.094;5.880;2022-11-22T07:36:14;3.65;118.99
66102;HTU21D;52883;51.094;5.880;2022-11-22T07:38:41;3.90;118.99
66102;HTU21D;52883;51.094;5.880;2022-11-22T07:41:08;4.18;118.99
66102;HTU21D;52883;51.094;5.880;2022-11-22T07:43:34;4.48;118.99
66102;HTU21D;52883;51.094;5.880;2022-11-22T07:46:02;4.78;118.99
66102;HTU21D;52883;51.094;5.880;2022-11-22T07:48:27;5.06;118.99
66102;HTU21D;52883;51.094;5.880;2022-11-22T07:50:56;5.33;118.99
66102;HTU21D;52883;51.094;5.880;2022-11-22T07:53:21;5.53;118.99
66102;HTU21D;52883;51.094;5.880;2022-11-22T07:55:50;5.72;118.99
66102;HTU21D;52883;51.094;5.880;2022-11-22T07:58:16;5.93;118.99
66102;HTU21D;52883;51.094;5.880;2022-11-22T08:00:41;5.91;118.99
66102;HTU21D;52883;51.094;5.880;2022-11-22T08:03:07;5.79;118.99
66102;HTU21D;52883;51.094;5.880;2022-11-22T08:05:33;5.75;118.99
66102;HTU21D;52883;51.094;5.880;2022-11-22T08:07:58;5.76;118.99
66102;HTU21D;52883;51.094;5.880;2022-11-22T08:10:24;5.76;118.99
66102;HTU21D;52883;51.094;5.880;2022-11-22T08:12:50;5.74;118.99
66102;HTU21D;52883;51.094;5.880;2022-11-22T08:15:16;5.75;118.99
66102;HTU21D;52883;51.094;5.880;2022-11-22T08:17:45;5.77;118.99
66102;HTU21D;52883;51.094;5.880;2022-11-22T08:20:10;5.81;118.99
66102;HTU21D;52883;51.094;5.880;2022-11-22T08:22:39;5.83;118.99
66102;HTU21D;52883;51.094;5.880;2022-11-22T08:25:06;5.85;118.99
66102;HTU21D;52883;51.094;5.880;2022-11-22T08:27:42;5.90;118.99
66102;HTU21D;52883;51.094;5.880;2022-11-22T08:30:12;5.96;118.99
66102;HTU21D;52883;51.094;5.880;2022-11-22T08:32:37;6.00;118.99
66102;HTU21D;52883;51.094;5.880;2022-11-22T08:35:03;6.10;118.99
66102;HTU21D;52883;51.094;5.880;2022-11-22T08:37:29;6.16;118.99
66102;HTU21D;52883;51.094;5.880;2022-11-22T08:39:55;6.23;118.99
66102;HTU21D;52883;51.094;5.880;2022-11-22T08:42:21;6.29;118.99
66102;HTU21D;52883;51.094;5.880;2022-11-22T08:44:50;6.38;118.99
66102;HTU21D;52883;51.094;5.880;2022-11-22T08:47:16;6.49;118.99
66102;HTU21D;52883;51.094;5.880;2022-11-22T08:49:44;6.56;118.99
66102;HTU21D;52883;51.094;5.880;2022-11-22T08:52:10;6.65;118.99
66102;HTU21D;52883;51.094;5.880;2022-11-22T08:54:38;6.70;118.99
66102;HTU21D;52883;51.094;5.880;2022-11-22T08:57:04;6.76;118.99
66102;HTU21D;52883;51.094;5.880;2022-11-22T08:59:30;6.84;118.99
66102;HTU21D;52883;51.094;5.880;2022-11-22T09:01:55;6.93;118.99
66102;HTU21D;52883;51.094;5.880;2022-11-22T09:04:21;7.01;118.99
66102;HTU21D;52883;51.094;5.880;2022-11-22T09:06:50;7.16;118.99
66102;HTU21D;52883;51.094;5.880;2022-11-22T09:09:16;7.25;118.99
66102;HTU21D;52883;51.094;5.880;2022-11-22T09:11:44;7.41;118.99
66102;HTU21D;52883;51.094;5.880;2022-11-22T09:14:10;7.48;118.99
66102;HTU21D;52883;51.094;5.880;2022-11-22T09:16:35;7.48;118.99
66102;HTU21D;52883;51.094;5.880;2022-11-22T09:19:01;7.47;118.99
66102;HTU21D;52883;51.094;5.880;2022-11-22T09:21:27;7.56;118.99
66102;HTU21D;52883;51.094;5.880;2022-11-22T09:23:52;7.52;118.99
66102;HTU21D;52883;51.094;5.880;2022-11-22T09:26:21;7.55;118.99
66102;HTU21D;52883;51.094;5.880;2022-11-22T09:28:50;7.94;118.99
66102;HTU21D;52883;51.094;5.880;2022-11-22T09:31:18;8.12;118.99
66102;HTU21D;52883;51.094;5.880;2022-11-22T09:33:45;8.12;118.99
66102;HTU21D;52883;51.094;5.880;2022-11-22T09:36:16;8.14;118.99
66102;HTU21D;52883;51.094;5.880;2022-11-22T09:38:45;8.16;118.99
66102;HTU21D;52883;51.094;5.880;2022-11-22T09:41:17;8.13;118.99
66102;HTU21D;52883;51.094;5.880;2022-11-22T09:50:33;8.07;118.99
66102;HTU21D;52883;51.094;5.880;2022-11-22T09:53:33;8.13;118.99
66102;HTU21D;52883;51.094;5.880;2022-11-22T09:56:07;8.06;118.99
66102;HTU21D;52883;51.094;5.880;2022-11-22T09:58:43;8.13;118.99
66102;HTU21D;52883;51.094;5.880;2022-11-22T10:01:20;8.19;118.99
66102;HTU21D;52883;51.094;5.880;2022-11-22T10:04:05;8.27;118.99
66102;HTU21D;52883;51.094;5.880;2022-11-22T10:06:36;8.45;118.99
66102;HTU21D;52883;51.094;5.880;2022-11-22T10:15:07;8.57;118.99
66102;HTU21D;52883;51.094;5.880;2022-11-22T10:17:58;8.64;118.99
66102;HTU21D;52883;51.094;5.880;2022-11-22T10:20:39;8.77;118.99
66102;HTU21D;52883;51.094;5.880;2022-11-22T10:23:32;8.89;118.99
66102;HTU21D;52883;51.094;5.880;2022-11-22T10:31:54;8.71;118.99
66102;HTU21D;52883;51.094;5.880;2022-11-22T10:40:06;8.77;118.99
66102;HTU21D;52883;51.094;5.880;2022-11-22T10:45:33;8.87;118.99
66102;HTU21D;52883;51.094;5.880;2022-11-22T10:48:28;8.95;118.99
66102;HTU21D;52883;51.094;5.880;2022-11-22T10:54:27;8.96;118.99
66102;HTU21D;52883;51.094;5.880;2022-11-22T10:57:32;8.85;118.99
66102;HTU21D;52883;51.094;5.880;2022-11-22T11:00:18;8.92;118.99
66102;HTU21D;52883;51.094;5.880;2022-11-22T11:05:42;9.09;118.99
66102;HTU21D;52883;51.094;5.880;2022-11-22T11:08:35;9.09;118.99
66102;HTU21D;52883;51.094;5.880;2022-11-22T11:11:04;9.01;118.99
66102;HTU21D;52883;51.094;5.880;2022-11-22T11:13:38;9.10;118.99
66102;HTU21D;52883;51.094;5.880;2022-11-22T11:16:10;9.07;118.99
66102;HTU21D;52883;51.094;5.880;2022-11-22T11:19:10;9.03;118.99
66102;HTU21D;52883;51.094;5.880;2022-11-22T11:21:38;9.06;118.99
66102;HTU21D;52883;51.094;5.880;2022-11-22T11:24:15;9.26;118.99
66102;HTU21D;52883;51.094;5.880;2022-11-22T11:26:53;9.14;118.99
66102;HTU21D;52883;51.094;5.880;2022-11-22T11:32:13;9.22;118.99
66102;HTU21D;52883;51.094;5.880;2022-11-22T11:34:47;9.11;118.99
66102;HTU21D;52883;51.094;5.880;2022-11-22T11:37:22;9.04;118.99
66102;HTU21D;52883;51.094;5.880;2022-11-22T11:39:48;9.04;118.99
66102;HTU21D;52883;51.094;5.880;2022-11-22T11:42:30;9.01;118.99
66102;HTU21D;52883;51.094;5.880;2022-11-22T11:45:19;8.93;118.99
66102;HTU21D;52883;51.094;5.880;2022-11-22T11:47:51;8.86;118.99
66102;HTU21D;52883;51.094;5.880;2022-11-22T11:50:23;8.88;118.99
66102;HTU21D;52883;51.094;5.880;2022-11-22T11:53:02;8.94;118.99
66102;HTU21D;52883;51.094;5.880;2022-11-22T11:55:36;8.87;118.99
66102;HTU21D;52883;51.094;5.880;2022-11-22T11:58:13;8.92;118.99
66102;HTU21D;52883;51.094;5.880;2022-11-22T12:00:46;8.98;118.99
66102;HTU21D;52883;51.094;5.880;2022-11-22T12:03:18;9.03;118.99
66102;HTU21D;52883;51.094;5.880;2022-11-22T12:05:47;9.14;118.99
66102;HTU21D;52883;51.094;5.880;2022-11-22T12:08:30;9.02;118.99
66102;HTU21D;52883;51.094;5.880;2022-11-22T12:11:04;8.93;118.99
66102;HTU21D;52883;51.094;5.880;2022-11-22T12:13:49;8.92;118.99
66102;HTU21D;52883;51.094;5.880;2022-11-22T12:16:29;8.79;118.99
66102;HTU21D;52883;51.094;5.880;2022-11-22T12:24:52;8.73;118.99
66102;HTU21D;52883;51.094;5.880;2022-11-22T12:27:19;8.75;118.99
66102;HTU21D;52883;51.094;5.880;2022-11-22T12:29:50;8.90;118.99
66102;HTU21D;52883;51.094;5.880;2022-11-22T12:32:26;8.88;118.99
66102;HTU21D;52883;51.094;5.880;2022-11-22T12:35:20;8.93;118.99
66102;HTU21D;52883;51.094;5.880;2022-11-22T12:38:16;9.02;118.99
66102;HTU21D;52883;51.094;5.880;2022-11-22T12:40:53;9.20;118.99
66102;HTU21D;52883;51.094;5.880;2022-11-22T12:46:28;9.41;118.99
66102;HTU21D;52883;51.094;5.880;2022-11-22T12:49:27;9.39;118.99
66102;HTU21D;52883;51.094;5.880;2022-11-22T12:55:16;9.30;118.99
66102;HTU21D;52883;51.094;5.880;2022-11-22T12:57:49;9.33;118.99
66102;HTU21D;52883;51.094;5.880;2022-11-22T13:00:23;9.40;118.99
66102;HTU21D;52883;51.094;5.880;2022-11-22T13:03:25;9.51;118.99
66102;HTU21D;52883;51.094;5.880;2022-11-22T13:05:58;9.46;118.99
66102;HTU21D;52883;51.094;5.880;2022-11-22T13:08:45;9.46;118.99
66102;HTU21D;52883;51.094;5.880;2022-11-22T13:11:29;9.47;118.99
66102;HTU21D;52883;51.094;5.880;2022-11-22T13:14:04;9.52;118.99
66102;HTU21D;52883;51.094;5.880;2022-11-22T13:16:32;9.46;118.99
66102;HTU21D;52883;51.094;5.880;2022-11-22T13:19:03;9.44;118.99
66102;HTU21D;52883;51.094;5.880;2022-11-22T13:24:26;9.44;118.99
66102;HTU21D;52883;51.094;5.880;2022-11-22T13:29:41;9.46;118.99
66102;HTU21D;52883;51.094;5.880;2022-11-22T13:34:57;9.50;118.99
66102;HTU21D;52883;51.094;5.880;2022-11-22T13:37:40;9.51;118.99
66102;HTU21D;52883;51.094;5.880;2022-11-22T13:40:25;9.57;118.99
66102;HTU21D;52883;51.094;5.880;2022-11-22T13:45:50;9.60;118.99
66102;HTU21D;52883;51.094;5.880;2022-11-22T13:51:50;9.63;118.99
66102;HTU21D;52883;51.094;5.880;2022-11-22T13:57:37;9.57;118.99
66102;HTU21D;52883;51.094;5.880;2022-11-22T14:02:47;9.52;118.99
66102;HTU21D;52883;51.094;5.880;2022-11-22T14:05:25;9.52;118.99
66102;HTU21D;52883;51.094;5.880;2022-11-22T14:07:59;9.49;118.99
66102;HTU21D;52883;51.094;5.880;2022-11-22T14:16:36;9.46;118.99
66102;HTU21D;52883;51.094;5.880;2022-11-22T14:19:32;9.60;118.99
66102;HTU21D;52883;51.094;5.880;2022-11-22T14:24:53;9.62;118.99
66102;HTU21D;52883;51.094;5.880;2022-11-22T14:27:44;9.53;118.99
66102;HTU21D;52883;51.094;5.880;2022-11-22T14:30:44;9.32;118.99
66102;HTU21D;52883;51.094;5.880;2022-11-22T14:33:17;9.18;118.99
66102;HTU21D;52883;51.094;5.880;2022-11-22T14:38:34;8.80;118.99
66102;HTU21D;52883;51.094;5.880;2022-11-22T14:44:17;8.44;118.99
66102;HTU21D;52883;51.094;5.880;2022-11-22T14:47:00;8.27;118.99
66102;HTU21D;52883;51.094;5.880;2022-11-22T14:49:45;8.17;118.99
66102;HTU21D;52883;51.094;5.880;2022-11-22T14:52:23;8.16;118.99
66102;HTU21D;52883;51.094;5.880;2022-11-22T14:54:56;8.13;118.99
66102;HTU21D;52883;51.094;5.880;2022-11-22T14:57:26;8.09;118.99
66102;HTU21D;52883;51.094;5.880;2022-11-22T15:16:32;8.01;118.99
66102;HTU21D;52883;51.094;5.880;2022-11-22T15:18:59;7.96;118.99
66102;HTU21D;52883;51.094;5.880;2022-11-22T15:21:33;7.92;118.99
66102;HTU21D;52883;51.094;5.880;2022-11-22T15:23:59;7.89;118.99
66102;HTU21D;52883;51.094;5.880;2022-11-22T15:26:29;7.87;118.99
66102;HTU21D;52883;51.094;5.880;2022-11-22T15:28:58;7.89;118.99
66102;HTU21D;52883;51.094;5.880;2022-11-22T15:31:33;7.88;118.99
66102;HTU21D;52883;51.094;5.880;2022-11-22T15:34:01;7.85;118.99
66102;HTU21D;52883;51.094;5.880;2022-11-22T15:39:15;7.92;118.99
66102;HTU21D;52883;51.094;5.880;2022-11-22T15:41:51;7.92;118.99
66102;HTU21D;52883;51.094;5.880;2022-11-22T15:44:20;7.96;118.99
66102;HTU21D;52883;51.094;5.880;2022-11-22T15:46:47;7.98;118.99
66102;HTU21D;52883;51.094;5.880;2022-11-22T15:49:20;8.01;118.99
66102;HTU21D;52883;51.094;5.880;2022-11-22T15:51:55;8.04;118.99
66102;HTU21D;52883;51.094;5.880;2022-11-22T15:54:25;8.06;118.99
66102;HTU21D;52883;51.094;5.880;2022-11-22T15:57:31;8.06;118.99
66102;HTU21D;52883;51.094;5.880;2022-11-22T15:59:57;8.09;118.99
66102;HTU21D;52883;51.094;5.880;2022-11-22T16:02:27;8.09;118.99
66102;HTU21D;52883;51.094;5.880;2022-11-22T16:04:59;8.13;118.99
66102;HTU21D;52883;51.094;5.880;2022-11-22T16:07:40;8.14;118.99
66102;HTU21D;52883;51.094;5.880;2022-11-22T16:10:37;8.15;118.99
66102;HTU21D;52883;51.094;5.880;2022-11-22T16:13:12;8.20;118.99
66102;HTU21D;52883;51.094;5.880;2022-11-22T16:15:39;8.20;118.99
66102;HTU21D;52883;51.094;5.880;2022-11-22T16:18:06;8.26;118.99
66102;HTU21D;52883;51.094;5.880;2022-11-22T16:20:57;8.26;118.99
66102;HTU21D;52883;51.094;5.880;2022-11-22T16:23:32;8.27;118.99
66102;HTU21D;52883;51.094;5.880;2022-11-22T16:26:22;8.27;118.99
66102;HTU21D;52883;51.094;5.880;2022-11-22T16:28:54;8.27;118.99
66102;HTU21D;52883;51.094;5.880;2022-11-22T16:31:24;8.30;118.99
66102;HTU21D;52883;51.094;5.880;2022-11-22T16:33:53;8.32;118.99
66102;HTU21D;52883;51.094;5.880;2022-11-22T16:36:21;8.34;118.99
66102;HTU21D;52883;51.094;5.880;2022-11-22T16:38:50;8.36;118.99
66102;HTU21D;52883;51.094;5.880;2022-11-22T16:41:20;8.36;118.99
66102;HTU21D;52883;51.094;5.880;2022-11-22T16:43:51;8.37;118.99
66102;HTU21D;52883;51.094;5.880;2022-11-22T16:46:21;8.42;118.99
66102;HTU21D;52883;51.094;5.880;2022-11-22T16:48:48;8.42;118.99
66102;HTU21D;52883;51.094;5.880;2022-11-22T16:51:20;8.42;118.99
66102;HTU21D;52883;51.094;5.880;2022-11-22T16:54:07;8.41;118.99
66102;HTU21D;52883;51.094;5.880;2022-11-22T16:56:35;8.37;118.99
66102;HTU21D;52883;51.094;5.880;2022-11-22T16:59:01;8.42;118.99
66102;HTU21D;52883;51.094;5.880;2022-11-22T17:01:31;8.41;118.99
66102;HTU21D;52883;51.094;5.880;2022-11-22T17:04:00;8.45;118.99
66102;HTU21D;52883;51.094;5.880;2022-11-22T17:06:28;8.41;118.99
66102;HTU21D;52883;51.094;5.880;2022-11-22T17:08:56;8.37;118.99
66102;HTU21D;52883;51.094;5.880;2022-11-22T17:11:26;8.34;118.99
66102;HTU21D;52883;51.094;5.880;2022-11-22T17:13:53;8.30;118.99
66102;HTU21D;52883;51.094;5.880;2022-11-22T17:16:19;8.28;118.99
66102;HTU21D;52883;51.094;5.880;2022-11-22T17:18:46;8.27;118.99
66102;HTU21D;52883;51.094;5.880;2022-11-22T17:21:29;8.26;118.99
66102;HTU21D;52883;51.094;5.880;2022-11-22T17:24:01;8.27;118.99
66102;HTU21D;52883;51.094;5.880;2022-11-22T17:26:28;8.24;118.99
66102;HTU21D;52883;51.094;5.880;2022-11-22T17:28:55;8.23;118.99
66102;HTU21D;52883;51.094;5.880;2022-11-22T17:31:21;8.19;118.99